Time;durP1;ratioP1;P1;durP2;ratioP2;P2;SDS_P1;SDS_P2;PMS_P1;PMS_P2;Temp;Humidity;BMP_temperature;BMP_pressure;BME280_temperature;BME280_humidity;BME280_pressure;Samples;Min_cycle;Max_cycle;Signal;HPM_P1;HPM_P2
2021/05/29 00:00:13;;;;;;;42.60;34.22;;;13.40;83.40;;;;;;5005270;28;20466;-79
2021/05/29 00:02:39;;;;;;;41.83;34.05;;;13.40;83.40;;;;;;5005197;28;20034;-74
2021/05/29 00:05:06;;;;;;;41.00;33.20;;;13.40;83.40;;;;;;5004099;28;20034;-77
2021/05/29 00:07:32;;;;;;;38.83;32.45;;;13.50;83.10;;;;;;4995987;28;20034;-77
2021/05/29 00:09:58;;;;;;;40.88;32.75;;;13.50;83.10;;;;;;5005038;28;20042;-76
2021/05/29 00:12:24;;;;;;;38.35;31.83;;;13.50;82.70;;;;;;5021194;28;20038;-76
2021/05/29 00:14:50;;;;;;;41.40;33.88;;;13.50;82.60;;;;;;5025444;28;20033;-75
2021/05/29 00:17:18;;;;;;;37.28;30.75;;;13.40;82.70;;;;;;5025375;28;20041;-78
2021/05/29 00:19:44;;;;;;;39.58;32.75;;;13.40;82.80;;;;;;5017374;28;20025;-75
2021/05/29 00:22:10;;;;;;;38.03;32.47;;;13.30;82.90;;;;;;5003118;28;20030;-77
2021/05/29 00:24:35;;;;;;;40.50;33.47;;;13.30;83.10;;;;;;5007338;28;20040;-78
2021/05/29 00:27:01;;;;;;;37.80;32.60;;;13.30;83.10;;;;;;4998326;28;20073;-76
2021/05/29 00:29:27;;;;;;;39.65;33.25;;;13.20;83.20;;;;;;5011598;28;20056;-76
2021/05/29 00:31:53;;;;;;;38.83;31.98;;;13.20;83.10;;;;;;5023754;28;20469;-77
2021/05/29 00:34:18;;;;;;;39.22;32.70;;;13.10;83.10;;;;;;5026576;28;20044;-78
2021/05/29 00:36:44;;;;;;;39.25;33.55;;;13.10;83.30;;;;;;5010668;28;20119;-77
2021/05/29 00:39:10;;;;;;;41.90;33.88;;;13.10;83.50;;;;;;5022283;28;20068;-78
2021/05/29 00:41:35;;;;;;;38.83;34.25;;;13.00;83.50;;;;;;5025611;28;21170;-77
2021/05/29 00:44:01;;;;;;;44.53;35.47;;;12.90;83.50;;;;;;5027751;28;20397;-76
2021/05/29 00:46:27;;;;;;;41.22;34.53;;;12.90;83.70;;;;;;5027338;28;20088;-75
2021/05/29 00:48:53;;;;;;;46.53;36.20;;;12.80;83.80;;;;;;5033940;28;20033;-76
2021/05/29 00:51:18;;;;;;;43.72;36.00;;;12.80;84.00;;;;;;5027195;28;20038;-76
2021/05/29 00:53:46;;;;;;;43.80;35.95;;;12.80;84.00;;;;;;5025469;28;20053;-77
2021/05/29 00:56:12;;;;;;;44.80;35.60;;;12.70;84.20;;;;;;5001380;28;20046;-77
2021/05/29 00:58:40;;;;;;;44.15;36.53;;;12.70;84.40;;;;;;5006094;28;20041;-77
2021/05/29 01:01:06;;;;;;;42.38;35.75;;;12.60;84.40;;;;;;5019851;28;20037;-77
2021/05/29 01:03:36;;;;;;;43.70;36.13;;;12.60;84.50;;;;;;5027310;28;20045;-78
2021/05/29 01:06:03;;;;;;;43.00;36.10;;;12.60;84.40;;;;;;5027284;28;20048;-76
2021/05/29 01:08:29;;;;;;;45.47;37.38;;;12.60;84.40;;;;;;5021700;28;20465;-77
2021/05/29 01:10:55;;;;;;;40.05;33.85;;;12.60;84.10;;;;;;5030256;28;20033;-77
2021/05/29 01:13:27;;;;;;;43.38;35.63;;;12.60;84.10;;;;;;5024695;28;24088;-77
2021/05/29 01:15:55;;;;;;;39.28;34.17;;;12.50;84.10;;;;;;5025193;28;20107;-78
2021/05/29 01:18:21;;;;;;;44.58;36.58;;;12.50;84.10;;;;;;5022417;28;20045;-76
2021/05/29 01:20:48;;;;;;;44.30;36.45;;;12.50;84.00;;;;;;5025780;28;20150;-77
2021/05/29 01:23:14;;;;;;;42.55;37.22;;;12.40;84.10;;;;;;5008404;28;20522;-77
2021/05/29 01:25:45;;;;;;;43.85;35.75;;;12.40;84.20;;;;;;5018320;28;20044;-77
2021/05/29 01:28:21;;;;;;;46.45;38.15;;;12.40;84.30;;;;;;5021998;28;20046;-79
2021/05/29 01:30:53;;;;;;;47.13;40.15;;;12.30;84.60;;;;;;5013008;28;20401;-77
2021/05/29 01:33:24;;;;;;;45.30;39.15;;;12.30;84.90;;;;;;5025404;28;20041;-77
2021/05/29 01:35:52;;;;;;;47.97;38.72;;;12.30;85.10;;;;;;5027285;28;20026;-76
2021/05/29 01:38:20;;;;;;;46.92;39.75;;;12.20;85.00;;;;;;5017727;28;20512;-76
2021/05/29 01:40:46;;;;;;;44.35;39.15;;;12.20;85.10;;;;;;5025891;28;20374;-77
2021/05/29 01:43:13;;;;;;;47.78;41.50;;;12.20;85.30;;;;;;5009284;28;20045;-75
2021/05/29 01:45:40;;;;;;;44.83;38.17;;;12.20;85.20;;;;;;5009391;28;20034;-76
2021/05/29 01:48:06;;;;;;;46.47;40.15;;;12.20;85.40;;;;;;5019763;28;20034;-76
2021/05/29 01:50:33;;;;;;;43.63;37.40;;;12.10;85.50;;;;;;5025444;28;20084;-75
2021/05/29 01:53:03;;;;;;;45.53;39.70;;;12.10;85.40;;;;;;5028356;28;20041;-76
2021/05/29 01:55:31;;;;;;;46.95;40.08;;;12.10;85.30;;;;;;5006101;28;20056;-76
2021/05/29 01:57:58;;;;;;;42.95;38.28;;;12.10;85.20;;;;;;5025950;28;20033;-79
2021/05/29 02:00:26;;;;;;;50.03;39.03;;;12.00;85.20;;;;;;5021319;28;20056;-76
2021/05/29 02:02:52;;;;;;;47.25;40.60;;;12.00;85.10;;;;;;5021158;28;20389;-77
2021/05/29 02:05:21;;;;;;;49.55;40.33;;;12.00;85.00;;;;;;5023071;28;20053;-77
2021/05/29 02:07:47;;;;;;;49.67;42.20;;;11.90;85.30;;;;;;5023588;28;20052;-77
2021/05/29 02:10:16;;;;;;;56.38;45.55;;;11.90;85.70;;;;;;5021841;28;20461;-77
2021/05/29 02:12:48;;;;;;;55.75;45.05;;;11.80;86.50;;;;;;5027930;28;20038;-76
2021/05/29 02:15:17;;;;;;;57.95;48.00;;;11.70;87.10;;;;;;5005369;28;20592;-77
2021/05/29 02:17:45;;;;;;;56.35;46.78;;;11.60;87.50;;;;;;5005999;28;20036;-77
2021/05/29 02:20:11;;;;;;;54.00;45.15;;;11.60;87.80;;;;;;5004005;28;20400;-77
2021/05/29 02:22:38;;;;;;;58.88;47.17;;;11.60;87.60;;;;;;5008308;28;20042;-75
2021/05/29 02:25:05;;;;;;;60.92;49.63;;;11.60;87.80;;;;;;4999224;28;20484;-76
2021/05/29 02:27:31;;;;;;;58.88;47.08;;;11.50;87.90;;;;;;5001447;28;20134;-78
2021/05/29 02:29:57;;;;;;;58.08;46.88;;;11.50;88.10;;;;;;5006152;28;20037;-76
2021/05/29 02:32:23;;;;;;;57.90;46.38;;;11.50;88.10;;;;;;5025231;28;20448;-77
2021/05/29 02:34:49;;;;;;;58.85;47.63;;;11.50;88.10;;;;;;5028233;28;20521;-77
2021/05/29 02:37:14;;;;;;;62.70;48.55;;;11.50;88.10;;;;;;5025414;28;20290;-77
2021/05/29 02:39:40;;;;;;;58.85;48.67;;;11.40;88.10;;;;;;5019706;28;20496;-77
2021/05/29 02:42:06;;;;;;;62.63;50.40;;;11.40;88.10;;;;;;5021120;28;21121;-80
2021/05/29 02:44:32;;;;;;;57.63;49.13;;;11.30;88.10;;;;;;5029151;28;20041;-77
2021/05/29 02:46:58;;;;;;;63.50;49.53;;;11.30;88.30;;;;;;5024729;28;20042;-77
2021/05/29 02:49:24;;;;;;;58.38;48.78;;;11.20;88.30;;;;;;5012185;28;20450;-77
2021/05/29 02:51:50;;;;;;;59.33;50.05;;;11.20;88.40;;;;;;5000870;28;20026;-79
2021/05/29 02:54:15;;;;;;;63.08;49.72;;;11.10;88.40;;;;;;5010626;28;20058;-76
2021/05/29 02:56:41;;;;;;;59.20;46.65;;;11.10;88.40;;;;;;5023530;28;21038;-77
2021/05/29 02:59:06;;;;;;;58.38;46.42;;;11.10;88.40;;;;;;5010624;28;20069;-75
2021/05/29 03:01:32;;;;;;;59.58;48.08;;;11.10;88.30;;;;;;5019000;28;20034;-76
2021/05/29 03:03:58;;;;;;;59.42;47.13;;;11.10;88.30;;;;;;5027414;28;20069;-76
2021/05/29 03:06:24;;;;;;;53.30;44.92;;;11.10;88.40;;;;;;5015497;28;20116;-76
2021/05/29 03:08:49;;;;;;;53.58;44.65;;;11.10;88.30;;;;;;5000038;28;20493;-76
2021/05/29 03:11:15;;;;;;;53.75;45.95;;;11.00;88.10;;;;;;5000312;28;20038;-77
2021/05/29 03:13:41;;;;;;;52.58;44.15;;;11.00;88.10;;;;;;5014636;28;20623;-76
2021/05/29 03:16:06;;;;;;;52.40;42.83;;;11.10;88.00;;;;;;5016476;28;20156;-77
2021/05/29 03:18:32;;;;;;;52.38;41.58;;;11.00;87.90;;;;;;5027867;28;20068;-76
2021/05/29 03:20:58;;;;;;;51.70;41.25;;;11.00;87.70;;;;;;5018716;28;20053;-77
2021/05/29 03:23:25;;;;;;;46.85;40.28;;;11.00;87.70;;;;;;5015196;28;20128;-76
2021/05/29 03:25:51;;;;;;;51.38;40.90;;;11.00;87.60;;;;;;5026776;28;20501;-77
2021/05/29 03:28:17;;;;;;;54.42;41.63;;;11.00;87.60;;;;;;5009713;28;20030;-77
2021/05/29 03:30:43;;;;;;;49.08;40.35;;;11.00;87.60;;;;;;5007868;28;20038;-76
2021/05/29 03:33:11;;;;;;;45.10;37.63;;;11.00;87.50;;;;;;5004763;28;20115;-80
2021/05/29 03:35:37;;;;;;;43.72;37.13;;;11.00;87.40;;;;;;5023401;28;20038;-76
2021/05/29 03:38:03;;;;;;;41.90;35.97;;;11.00;87.10;;;;;;5020268;28;20068;-77
2021/05/29 03:40:28;;;;;;;42.53;36.30;;;11.00;87.00;;;;;;5027755;28;20033;-76
2021/05/29 03:42:54;;;;;;;44.08;37.17;;;11.00;86.90;;;;;;5019173;28;20179;-75
2021/05/29 03:45:21;;;;;;;41.58;34.08;;;10.90;86.80;;;;;;5026243;28;20607;-76
2021/05/29 03:47:48;;;;;;;47.75;34.72;;;10.90;86.90;;;;;;5019395;28;20029;-76
2021/05/29 03:50:18;;;;;;;39.38;33.63;;;11.00;86.90;;;;;;5013593;28;20034;-77
2021/05/29 03:52:44;;;;;;;40.78;33.75;;;11.00;86.80;;;;;;5022115;28;20044;-77
2021/05/29 03:55:12;;;;;;;40.80;34.15;;;11.10;86.70;;;;;;5021413;28;20445;-78
2021/05/29 03:57:37;;;;;;;36.65;32.53;;;11.10;86.50;;;;;;5023233;28;20140;-76
2021/05/29 04:00:09;;;;;;;35.78;29.50;;;11.10;85.90;;;;;;5027079;28;20457;-76
2021/05/29 04:02:35;;;;;;;32.92;29.00;;;11.10;85.70;;;;;;5017257;28;20030;-76
2021/05/29 04:05:01;;;;;;;33.63;28.33;;;11.00;85.40;;;;;;5028645;28;20675;-76
2021/05/29 04:07:26;;;;;;;31.25;26.65;;;11.10;85.30;;;;;;5027544;28;20079;-76
2021/05/29 04:09:52;;;;;;;32.70;27.73;;;11.10;85.10;;;;;;5024849;28;20044;-76
2021/05/29 04:12:18;;;;;;;29.77;25.00;;;11.10;84.30;;;;;;5028587;28;20033;-76
2021/05/29 04:14:43;;;;;;;29.00;25.10;;;11.20;83.80;;;;;;5028884;28;20025;-76
2021/05/29 04:17:11;;;;;;;30.30;23.23;;;11.30;83.80;;;;;;5028640;28;20141;-76
2021/05/29 04:19:36;;;;;;;26.75;23.30;;;11.30;83.50;;;;;;5026027;28;20033;-76
2021/05/29 04:22:02;;;;;;;26.58;22.65;;;11.40;83.00;;;;;;5027814;28;20038;-76
2021/05/29 04:24:28;;;;;;;25.75;21.85;;;11.40;82.70;;;;;;5027441;28;20104;-76
2021/05/29 04:26:54;;;;;;;25.58;21.67;;;11.40;82.60;;;;;;5027968;28;20041;-76
2021/05/29 04:29:20;;;;;;;24.10;21.30;;;11.50;82.50;;;;;;5026569;28;20048;-77
2021/05/29 04:31:45;;;;;;;24.00;19.80;;;11.50;82.50;;;;;;5019307;28;20132;-76
2021/05/29 04:34:11;;;;;;;27.50;20.52;;;11.50;82.40;;;;;;5024189;28;20065;-77
2021/05/29 04:36:37;;;;;;;21.67;19.30;;;11.60;81.90;;;;;;5021530;28;20499;-76
2021/05/29 04:39:03;;;;;;;25.67;19.67;;;11.60;81.90;;;;;;5026484;28;20092;-76
2021/05/29 04:41:29;;;;;;;23.65;18.95;;;11.60;81.90;;;;;;5025521;28;20366;-76
2021/05/29 04:43:55;;;;;;;22.20;18.73;;;11.60;81.90;;;;;;5026208;28;20480;-76
2021/05/29 04:46:20;;;;;;;23.20;18.90;;;11.70;81.90;;;;;;5015964;28;20178;-76
2021/05/29 04:48:46;;;;;;;21.75;18.55;;;11.70;81.70;;;;;;5020034;28;20022;-76
2021/05/29 04:51:12;;;;;;;22.95;19.08;;;11.80;81.30;;;;;;5013081;28;20477;-77
2021/05/29 04:53:42;;;;;;;23.48;18.85;;;11.80;81.40;;;;;;5024948;28;20041;-75
2021/05/29 04:56:09;;;;;;;22.15;19.13;;;11.90;81.30;;;;;;5013450;28;20038;-76
2021/05/29 04:58:36;;;;;;;21.45;17.48;;;11.90;81.20;;;;;;5001305;28;20030;-76
2021/05/29 05:01:03;;;;;;;20.83;18.08;;;11.90;81.30;;;;;;5003375;28;20038;-76
2021/05/29 05:03:29;;;;;;;20.13;17.85;;;12.00;81.10;;;;;;5010404;28;20042;-76
2021/05/29 05:05:54;;;;;;;19.73;16.60;;;12.10;81.20;;;;;;5021585;28;20033;-76
2021/05/29 05:08:20;;;;;;;21.00;17.33;;;12.10;81.00;;;;;;5016198;28;20133;-76
2021/05/29 05:10:46;;;;;;;20.98;16.80;;;12.20;80.80;;;;;;5004256;28;20060;-76
2021/05/29 05:13:11;;;;;;;19.52;17.42;;;12.30;80.50;;;;;;5025297;28;20064;-76
2021/05/29 05:15:37;;;;;;;19.10;15.02;;;12.50;80.70;;;;;;5016361;28;20398;-76
2021/05/29 05:18:07;;;;;;;16.33;12.82;;;13.60;78.70;;;;;;5012307;28;20026;-76
2021/05/29 05:20:32;;;;;;;16.85;12.40;;;15.30;71.80;;;;;;5010176;28;20386;-75
2021/05/29 05:22:58;;;;;;;13.60;11.27;;;17.00;65.20;;;;;;5010723;28;20169;-76
2021/05/29 05:25:23;;;;;;;15.45;11.27;;;18.10;60.60;;;;;;5003846;28;20061;-76
2021/05/29 05:27:49;;;;;;;13.20;9.70;;;19.00;56.50;;;;;;5025643;28;20451;-76
2021/05/29 05:30:15;;;;;;;13.25;10.30;;;19.40;55.00;;;;;;5017083;28;20076;-77
2021/05/29 05:32:42;;;;;;;12.27;10.15;;;20.00;53.60;;;;;;5022565;28;20037;-75
2021/05/29 05:35:12;;;;;;;13.30;9.75;;;20.60;51.30;;;;;;5022704;28;20057;-76
2021/05/29 05:37:38;;;;;;;11.25;9.38;;;20.90;49.80;;;;;;5008413;28;20035;-78
2021/05/29 05:40:05;;;;;;;12.98;10.77;;;20.90;50.20;;;;;;5013095;28;20083;-77
2021/05/29 05:42:31;;;;;;;11.15;9.27;;;21.10;49.20;;;;;;5020690;28;20034;-78
2021/05/29 05:44:57;;;;;;;14.13;10.27;;;21.20;48.80;;;;;;5024907;28;20042;-71
2021/05/29 05:47:23;;;;;;;12.43;9.80;;;21.00;48.70;;;;;;5024833;28;20080;-71
2021/05/29 05:49:48;;;;;;;14.32;10.20;;;20.70;50.10;;;;;;5027671;28;20036;-72
2021/05/29 05:52:14;;;;;;;13.30;9.82;;;20.60;49.70;;;;;;5021326;28;20121;-71
2021/05/29 05:54:40;;;;;;;12.75;10.07;;;20.10;50.80;;;;;;5022287;28;20026;-73
2021/05/29 05:57:06;;;;;;;15.85;11.23;;;18.80;54.90;;;;;;5025079;28;20081;-71
2021/05/29 05:59:31;;;;;;;11.68;9.65;;;17.90;57.10;;;;;;5027786;28;20045;-71
2021/05/29 06:01:57;;;;;;;12.75;10.68;;;17.10;60.10;;;;;;5027333;28;21383;-70
2021/05/29 06:04:22;;;;;;;14.23;11.82;;;16.80;62.20;;;;;;5030080;28;20067;-71
2021/05/29 06:06:48;;;;;;;15.93;11.95;;;16.40;62.80;;;;;;5033869;28;20443;-71
2021/05/29 06:09:14;;;;;;;13.60;11.43;;;16.20;63.40;;;;;;5031353;28;20029;-71
2021/05/29 06:11:40;;;;;;;14.82;11.02;;;16.10;64.00;;;;;;5017823;28;20044;-71
2021/05/29 06:19:24;;;;;;;15.90;12.43;;;16.00;65.10;;;;;;5021393;28;20092;-73
2021/05/29 06:21:53;;;;;;;15.68;11.93;;;15.90;64.30;;;;;;5020903;28;20083;-72
2021/05/29 06:24:27;;;;;;;14.75;12.43;;;16.10;65.70;;;;;;5014211;28;20118;-71
2021/05/29 06:26:53;;;;;;;;;;;16.20;64.30;;;;;;5020915;28;20049;-71
2021/05/29 06:29:19;;;;;;;14.65;11.75;;;16.10;63.70;;;;;;5020295;28;19955;-71
2021/05/29 06:31:46;;;;;;;14.18;12.02;;;16.40;63.50;;;;;;5024793;28;20044;-72
2021/05/29 06:34:12;;;;;;;14.05;11.90;;;16.50;62.70;;;;;;5029174;28;20563;-71
2021/05/29 06:36:37;;;;;;;15.15;11.48;;;16.60;63.10;;;;;;5023065;28;20124;-71
2021/05/29 06:39:04;;;;;;;15.15;11.57;;;16.80;63.10;;;;;;5015229;28;20124;-71
2021/05/29 06:41:30;;;;;;;14.43;11.30;;;16.80;62.80;;;;;;5015328;28;20034;-71
2021/05/29 06:43:56;;;;;;;13.80;10.50;;;17.00;61.60;;;;;;5013834;28;20044;-71
2021/05/29 06:46:22;;;;;;;15.35;11.43;;;17.20;60.60;;;;;;5017738;28;20354;-71
2021/05/29 06:48:47;;;;;;;15.85;10.95;;;17.10;60.00;;;;;;5021627;28;20514;-72
2021/05/29 06:51:22;;;;;;;15.40;12.15;;;17.10;61.60;;;;;;5008845;28;20033;-72
2021/05/29 06:53:50;;;;;;;14.82;11.27;;;17.10;60.30;;;;;;5016509;28;20038;-72
2021/05/29 06:59:02;;;;;;;14.85;11.57;;;17.20;60.50;;;;;;5019266;28;20158;-72
2021/05/29 07:01:28;;;;;;;14.57;10.90;;;17.40;60.50;;;;;;4993919;28;20525;-72
2021/05/29 07:03:55;;;;;;;16.75;11.55;;;17.20;61.50;;;;;;4996662;28;20037;-72
2021/05/29 07:06:21;;;;;;;13.80;11.63;;;17.40;59.70;;;;;;4993781;28;20434;-73
2021/05/29 07:08:47;;;;;;;13.20;10.55;;;17.40;60.30;;;;;;5005323;28;20061;-72
2021/05/29 07:11:14;;;;;;;13.45;10.05;;;17.60;60.50;;;;;;5017896;28;20423;-72
2021/05/29 07:13:40;;;;;;;12.63;10.48;;;17.50;61.10;;;;;;5020532;28;20054;-72
2021/05/29 07:16:05;;;;;;;12.50;10.68;;;17.80;59.30;;;;;;5016404;28;20034;-75
2021/05/29 07:18:34;;;;;;;13.68;10.45;;;17.60;59.00;;;;;;5024214;28;20233;-72
2021/05/29 07:21:00;;;;;;;13.32;10.55;;;17.50;59.40;;;;;;5018706;28;20317;-72
2021/05/29 07:23:27;;;;;;;12.95;10.05;;;17.80;58.20;;;;;;5017743;28;20061;-71
2021/05/29 07:25:53;;;;;;;13.23;9.95;;;18.20;58.70;;;;;;5024662;28;20025;-72
2021/05/29 07:28:19;;;;;;;14.65;10.45;;;18.50;57.90;;;;;;5011212;28;20030;-72
2021/05/29 07:30:47;;;;;;;19.48;10.15;;;18.60;56.50;;;;;;5018203;28;20029;-72
2021/05/29 07:33:13;;;;;;;12.45;9.60;;;18.70;57.00;;;;;;5019876;28;20653;-72
2021/05/29 07:35:38;;;;;;;14.25;11.13;;;18.60;56.80;;;;;;5025468;28;20042;-74
2021/05/29 07:38:04;;;;;;;13.00;9.57;;;18.30;57.00;;;;;;5016425;28;20304;-72
2021/05/29 07:40:30;;;;;;;12.80;9.68;;;18.60;56.80;;;;;;5027621;28;20044;-73
2021/05/29 07:42:56;;;;;;;12.50;9.38;;;18.80;55.80;;;;;;5029205;28;20043;-73
2021/05/29 07:45:21;;;;;;;12.57;9.07;;;19.20;55.60;;;;;;5018125;28;20057;-72
2021/05/29 07:47:47;;;;;;;18.48;10.43;;;19.50;55.20;;;;;;5026121;28;20544;-72
2021/05/29 07:50:13;;;;;;;12.85;10.07;;;19.50;54.00;;;;;;5024761;28;20457;-72
2021/05/29 07:52:39;;;;;;;12.77;9.57;;;19.60;53.30;;;;;;5021844;28;20080;-72
2021/05/29 07:55:06;;;;;;;12.50;9.55;;;19.70;53.00;;;;;;5023775;28;20385;-72
2021/05/29 07:57:35;;;;;;;11.68;9.02;;;19.70;53.10;;;;;;5034873;28;20021;-73
2021/05/29 08:00:03;;;;;;;11.00;8.23;;;19.90;53.70;;;;;;5000689;28;20157;-72
2021/05/29 08:02:29;;;;;;;12.57;8.38;;;20.10;52.60;;;;;;5002387;28;20041;-72
2021/05/29 08:04:55;;;;;;;15.30;8.43;;;20.30;52.40;;;;;;5005410;28;20026;-72
2021/05/29 08:07:21;;;;;;;10.05;7.72;;;20.50;48.90;;;;;;5034107;28;20068;-72
2021/05/29 08:09:47;;;;;;;11.80;7.90;;;20.50;49.00;;;;;;5025794;28;20088;-74
2021/05/29 08:12:13;;;;;;;10.65;7.85;;;20.80;50.10;;;;;;5021516;28;20034;-73
2021/05/29 08:14:39;;;;;;;11.93;7.55;;;20.60;50.30;;;;;;5024748;28;20050;-72
2021/05/29 08:17:07;;;;;;;12.10;8.27;;;21.00;49.00;;;;;;5017893;28;20030;-72
2021/05/29 08:19:33;;;;;;;14.20;6.78;;;21.00;48.20;;;;;;5021149;28;20480;-73
2021/05/29 08:21:59;;;;;;;9.02;6.63;;;20.80;47.20;;;;;;5015749;28;20044;-73
2021/05/29 08:24:25;;;;;;;10.93;7.30;;;20.90;48.00;;;;;;5016659;28;20465;-72
2021/05/29 08:26:51;;;;;;;9.52;7.40;;;20.80;45.20;;;;;;5020197;28;20108;-72
2021/05/29 08:29:17;;;;;;;9.07;6.63;;;20.80;47.00;;;;;;5019068;28;20148;-73
2021/05/29 08:31:43;;;;;;;8.88;6.13;;;21.20;47.60;;;;;;5016885;28;20065;-74
2021/05/29 08:34:09;;;;;;;10.15;5.80;;;21.30;45.70;;;;;;5007999;28;20037;-73
2021/05/29 08:36:37;;;;;;;8.32;5.40;;;21.30;43.40;;;;;;5000045;28;20396;-73
2021/05/29 08:39:05;;;;;;;8.13;4.90;;;21.20;45.20;;;;;;5011207;28;20408;-73
2021/05/29 08:41:32;;;;;;;10.68;5.40;;;21.00;43.20;;;;;;5015588;28;20477;-73
2021/05/29 08:43:57;;;;;;;9.73;5.40;;;20.70;45.40;;;;;;5016288;28;20103;-74
2021/05/29 08:46:24;;;;;;;8.93;5.20;;;20.60;45.00;;;;;;5016099;28;20083;-73
2021/05/29 08:48:52;;;;;;;9.85;4.85;;;20.80;45.70;;;;;;5018271;28;20029;-72
2021/05/29 08:51:18;;;;;;;6.63;4.50;;;21.20;43.70;;;;;;5018382;28;20493;-72
2021/05/29 08:53:47;;;;;;;8.65;5.13;;;21.60;44.50;;;;;;5017122;28;20049;-72
2021/05/29 08:56:14;;;;;;;8.15;5.22;;;21.30;42.30;;;;;;5017191;28;20037;-75
2021/05/29 08:58:40;;;;;;;8.55;5.47;;;20.90;43.50;;;;;;5018647;28;20072;-75
2021/05/29 09:01:07;;;;;;;7.50;4.97;;;20.50;46.10;;;;;;5015495;28;20832;-71
2021/05/29 09:03:51;;;;;;;10.15;5.38;;;20.40;44.80;;;;;;5009655;28;20037;-71
2021/05/29 09:06:27;;;;;;;9.35;6.05;;;20.40;44.70;;;;;;5019849;28;20030;-72
2021/05/29 09:08:58;;;;;;;9.85;6.10;;;20.70;43.40;;;;;;5017725;28;20065;-70
2021/05/29 09:11:38;;;;;;;9.85;6.53;;;20.60;44.10;;;;;;5021670;28;20037;-69
2021/05/29 09:14:26;;;;;;;9.18;5.88;;;21.30;44.10;;;;;;5026053;28;20050;-71
2021/05/29 09:17:21;;;;;;;9.63;6.20;;;21.70;42.60;;;;;;5002628;28;20038;-68
2021/05/29 09:20:09;;;;;;;10.23;7.18;;;22.10;41.80;;;;;;4998250;28;20037;-69
2021/05/29 09:22:34;;;;;;;10.23;6.05;;;22.30;42.50;;;;;;5019950;28;20050;-70
2021/05/29 09:25:09;;;;;;;10.63;6.95;;;22.20;41.60;;;;;;5021116;28;20036;-71
2021/05/29 09:27:49;;;;;;;12.38;5.97;;;22.10;41.00;;;;;;5015199;28;20030;-70
2021/05/29 09:30:15;;;;;;;10.00;5.15;;;22.00;40.00;;;;;;5022813;28;20110;-69
2021/05/29 09:32:40;;;;;;;9.18;6.00;;;21.40;41.10;;;;;;5017543;28;20046;-73
2021/05/29 09:35:09;;;;;;;10.60;6.40;;;21.40;41.30;;;;;;5014321;28;20100;-71
2021/05/29 09:37:35;;;;;;;10.57;6.20;;;21.20;41.80;;;;;;5017415;28;20030;-69
2021/05/29 09:40:09;;;;;;;9.55;5.78;;;21.50;41.30;;;;;;5016095;28;20046;-71
2021/05/29 09:42:38;;;;;;;11.63;5.50;;;21.00;40.00;;;;;;5002343;28;20097;-70
2021/05/29 09:45:37;;;;;;;10.77;5.93;;;21.20;40.00;;;;;;4998285;28;20034;-71
2021/05/29 09:48:20;;;;;;;9.13;5.90;;;21.20;42.60;;;;;;4998213;28;20041;-72
2021/05/29 09:51:08;;;;;;;11.00;6.75;;;21.70;41.30;;;;;;4999529;28;20028;-71
2021/05/29 09:53:43;;;;;;;7.07;4.30;;;22.40;40.80;;;;;;5012522;28;20092;-73
2021/05/29 09:56:22;;;;;;;9.38;4.90;;;22.70;39.10;;;;;;5022208;28;20029;-74
2021/05/29 09:58:53;;;;;;;8.98;5.80;;;23.00;39.60;;;;;;5017073;28;20484;-70
2021/05/29 10:01:45;;;;;;;9.20;5.60;;;23.20;38.40;;;;;;5021200;28;20396;-70
2021/05/29 10:07:03;;;;;;;10.32;6.07;;;23.40;39.20;;;;;;5018329;28;20477;-71
2021/05/29 10:09:29;;;;;;;9.57;4.55;;;23.10;38.40;;;;;;5015933;28;20120;-70
2021/05/29 10:11:56;;;;;;;7.40;4.60;;;22.20;38.80;;;;;;5019030;28;20037;-71
2021/05/29 10:14:23;;;;;;;9.50;5.65;;;22.30;39.90;;;;;;5017941;28;20049;-71
2021/05/29 10:16:49;;;;;;;12.18;7.00;;;22.30;39.10;;;;;;5023190;28;20030;-72
2021/05/29 10:19:20;;;;;;;8.82;5.35;;;21.70;40.80;;;;;;5018436;28;20317;-69
2021/05/29 10:21:47;;;;;;;7.28;4.50;;;21.30;40.90;;;;;;5019340;28;20025;-70
2021/05/29 10:24:13;;;;;;;7.53;4.38;;;21.60;41.40;;;;;;5022778;28;20034;-73
2021/05/29 10:26:39;;;;;;;9.35;4.30;;;21.90;37.80;;;;;;5023968;28;20080;-76
2021/05/29 10:29:05;;;;;;;8.50;4.60;;;22.00;39.20;;;;;;5014969;28;20549;-73
2021/05/29 10:31:36;;;;;;;9.32;5.07;;;22.20;38.70;;;;;;5025144;28;20030;-73
2021/05/29 10:34:02;;;;;;;7.18;4.38;;;22.20;38.50;;;;;;5023314;28;20034;-76
2021/05/29 10:36:40;;;;;;;9.43;3.90;;;22.60;37.70;;;;;;5026156;28;20203;-73
2021/05/29 10:39:10;;;;;;;6.55;4.15;;;22.90;36.90;;;;;;5016118;28;20033;-72
2021/05/29 10:41:53;;;;;;;8.60;4.47;;;23.20;37.10;;;;;;5029577;28;20067;-72
2021/05/29 10:44:34;;;;;;;7.87;4.50;;;23.80;36.10;;;;;;5024528;28;20112;-73
2021/05/29 10:47:16;;;;;;;9.80;5.47;;;24.10;35.50;;;;;;5007584;28;20029;-72
2021/05/29 10:49:50;;;;;;;8.73;5.25;;;24.00;37.40;;;;;;5020985;28;20038;-73
2021/05/29 10:52:31;;;;;;;7.60;4.80;;;24.30;36.80;;;;;;5009467;28;20045;-73
2021/05/29 10:55:11;;;;;;;8.02;5.18;;;24.30;35.90;;;;;;5018357;28;20107;-72
2021/05/29 10:58:01;;;;;;;7.20;3.72;;;23.80;36.10;;;;;;5005900;28;20025;-73
2021/05/29 11:00:50;;;;;;;11.02;3.92;;;22.80;35.30;;;;;;5012933;28;20038;-72
2021/05/29 11:03:16;;;;;;;7.18;4.13;;;22.10;35.60;;;;;;5017416;28;20049;-72
2021/05/29 11:05:46;;;;;;;8.77;4.25;;;21.50;37.00;;;;;;5028551;28;20412;-72
2021/05/29 11:08:50;;;;;;;8.23;4.53;;;21.50;37.20;;;;;;4995323;28;20040;-72
2021/05/29 11:14:12;;;;;;;7.85;4.88;;;22.70;37.10;;;;;;5007664;28;20038;-72
2021/05/29 11:16:53;;;;;;;7.28;4.53;;;22.70;36.50;;;;;;5009706;28;20041;-75
2021/05/29 11:19:22;;;;;;;8.32;5.97;;;23.10;38.90;;;;;;5007289;28;20030;-74
2021/05/29 11:22:00;;;;;;;9.80;4.88;;;23.80;36.90;;;;;;5023565;28;20025;-75
2021/05/29 11:24:26;;;;;;;9.13;5.03;;;24.10;36.30;;;;;;5022835;28;20075;-76
2021/05/29 11:26:53;;;;;;;8.25;5.05;;;24.30;34.30;;;;;;5018763;28;20522;-75
2021/05/29 11:29:19;;;;;;;8.88;4.57;;;23.80;34.60;;;;;;5023340;28;20033;-73
2021/05/29 11:31:46;;;;;;;7.70;4.28;;;23.80;34.50;;;;;;5023692;28;20025;-73
2021/05/29 11:34:12;;;;;;;7.68;3.78;;;24.00;34.30;;;;;;5022322;28;20137;-73
2021/05/29 11:36:39;;;;;;;7.13;3.10;;;23.90;34.70;;;;;;5027466;28;20052;-73
2021/05/29 11:39:11;;;;;;;7.00;3.80;;;23.40;33.60;;;;;;5017242;28;20065;-75
2021/05/29 11:41:37;;;;;;;6.28;3.35;;;23.50;31.60;;;;;;5017639;28;20525;-72
2021/05/29 11:44:05;;;;;;;6.43;4.22;;;23.00;33.60;;;;;;5003167;28;20125;-74
2021/05/29 11:46:31;;;;;;;7.38;4.40;;;23.20;33.90;;;;;;5002317;28;20061;-72
2021/05/29 11:49:03;;;;;;;8.90;5.10;;;23.40;34.20;;;;;;5016620;28;20053;-74
2021/05/29 11:51:34;;;;;;;7.38;4.47;;;23.50;34.90;;;;;;5003161;28;20088;-72
2021/05/29 11:54:15;;;;;;;8.13;4.90;;;23.40;35.10;;;;;;5002944;28;20049;-75
2021/05/29 11:56:52;;;;;;;7.60;5.22;;;23.90;36.20;;;;;;5017065;28;20160;-72
2021/05/29 11:59:23;;;;;;;8.90;6.05;;;24.00;35.50;;;;;;5020656;28;20051;-72
2021/05/29 12:01:52;;;;;;;7.97;5.72;;;23.10;36.10;;;;;;5028104;28;20029;-72
2021/05/29 12:04:21;;;;;;;9.52;5.60;;;22.90;39.10;;;;;;5023275;28;20041;-75
2021/05/29 12:06:50;;;;;;;9.13;5.15;;;22.80;35.80;;;;;;5021061;28;20088;-71
2021/05/29 12:09:21;;;;;;;9.35;5.85;;;22.70;37.70;;;;;;5023725;28;20512;-72
2021/05/29 12:11:52;;;;;;;9.40;6.32;;;22.50;36.90;;;;;;5015681;28;20037;-72
2021/05/29 12:14:26;;;;;;;9.88;5.43;;;22.50;37.90;;;;;;5006835;28;20038;-74
2021/05/29 12:17:01;;;;;;;;;;;22.00;37.10;;;;;;5022711;28;20124;-72
2021/05/29 12:19:28;;;;;;;7.90;5.22;;;21.60;38.50;;;;;;5022222;28;20313;-72
2021/05/29 12:21:56;;;;;;;10.43;5.50;;;21.70;38.30;;;;;;5030890;28;20041;-72
2021/05/29 12:24:24;;;;;;;8.20;5.80;;;22.10;37.10;;;;;;5010689;28;20038;-73
2021/05/29 12:26:51;;;;;;;9.52;5.18;;;22.10;37.30;;;;;;4989526;28;20069;-75
2021/05/29 12:29:22;;;;;;;9.40;5.22;;;22.30;38.50;;;;;;4996752;28;20061;-72
2021/05/29 12:31:56;;;;;;;7.88;4.50;;;22.00;38.20;;;;;;4995899;28;20037;-74
2021/05/29 12:34:24;;;;;;;9.65;4.80;;;21.80;39.30;;;;;;5010008;28;20137;-74
2021/05/29 12:37:09;;;;;;;10.10;4.88;;;22.20;38.90;;;;;;5020706;28;20054;-73
2021/05/29 12:39:41;;;;;;;8.73;5.75;;;22.60;38.60;;;;;;5012992;28;20029;-72
2021/05/29 12:42:21;;;;;;;8.88;5.25;;;22.60;37.30;;;;;;5015682;28;20092;-75
2021/05/29 12:44:49;;;;;;;8.27;4.97;;;22.20;38.10;;;;;;5012990;28;20048;-73
2021/05/29 12:47:16;;;;;;;11.13;5.72;;;22.40;37.50;;;;;;5017098;28;20037;-72
2021/05/29 12:49:42;;;;;;;12.45;6.28;;;22.40;37.80;;;;;;5018136;28;21551;-72
2021/05/29 12:52:23;;;;;;;10.38;5.63;;;22.60;38.30;;;;;;5016911;28;20064;-75